Time,TemperatureF,DewpointF,PressureIn,WindDirection,WindDirectionDegrees,WindSpeedMPH,WindSpeedGustMPH,Humidity,HourlyPrecipIn,Conditions,Clouds,dailyrainin,SoftwareType,DateUTC
2013-07-22 00:00:00,73.0,70.3,30.03,ENE,75,0.0,3.0,91,0.00,RA,,0.00,WeatherDisplay:10.37,2013-07-22 04:00:00,
2013-07-22 00:01:00,73.0,70.3,30.03,ENE,68,1.2,0.0,91,0.00,RA,,0.00,WeatherDisplay:10.37,2013-07-22 04:01:00,
2013-07-22 00:02:00,73.0,70.3,30.00,ENE,68,1.2,0.0,91,0.00,RA,,0.00,WeatherDisplay:10.37,2013-07-22 04:02:00,
2013-07-22 00:07:00,72.9,70.1,30.00,East,90,1.2,1.2,91,0.00,RA,,0.00,WeatherDisplay:10.37,2013-07-22 04:07:00,
2013-07-22 00:12:00,72.9,70.1,30.00,ENE,68,1.2,1.2,91,0.00,CLR,,0.00,WeatherDisplay:10.37,2013-07-22 04:12:00,
2013-07-22 00:17:00,72.7,69.9,30.00,ENE,68,1.2,0.0,91,0.00,CLR,,0.00,WeatherDisplay:10.37,2013-07-22 04:17:00,
2013-07-22 00:22:00,72.7,69.9,30.00,ESE,112,0.0,0.0,91,0.00,CLR,,0.00,WeatherDisplay:10.37,2013-07-22 04:22:00,
2013-07-22 00:27:00,72.7,69.9,30.00,ESE,112,0.0,0.0,91,0.00,CLR,,0.00,WeatherDisplay:10.37,2013-07-22 04:27:00,
2013-07-22 00:32:00,72.5,69.7,30.00,East,90,0.0,0.0,91,0.00,CLR,,0.00,WeatherDisplay:10.37,2013-07-22 04:32:00,
2013-07-22 00:37:00,72.5,70.0,30.00,ENE,68,2.3,2.3,92,0.00,CLR,,0.00,WeatherDisplay:10.37,2013-07-22 04:37:00,
2013-07-22 00:42:00,72.5,70.0,30.00,ENE,68,1.2,0.0,92,0.00,CLR,,0.00,WeatherDisplay:10.37,2013-07-22 04:42:00,
2013-07-22 00:47:00,72.5,70.0,30.00,ENE,68,1.2,0.0,92,0.00,CLR,,0.00,WeatherDisplay:10.37,2013-07-22 04:47:00,
2013-07-22 00:52:00,72.3,69.9,30.00,ENE,68,1.2,1.2,92,0.00,CLR,,0.00,WeatherDisplay:10.37,2013-07-22 04:52:00,
2013-07-22 00:57:00,72.1,69.7,30.00,ENE,68,2.3,2.3,92,0.00,CLR,,0.00,WeatherDisplay:10.37,2013-07-22 04:57:00,
2013-07-22 01:02:00,72.1,69.7,30.00,ENE,68,1.6,0.0,92,0.00,CLR,,0.00,WeatherDisplay:10.37,2013-07-22 05:02:00,
2013-07-22 01:07:00,72.1,70.0,30.00,ENE,68,2.3,2.3,93,0.00,CLR,,0.00,WeatherDisplay:10.37,2013-07-22 05:07:00,
2013-07-22 01:12:00,72.1,69.7,30.00,ENE,68,2.9,2.9,92,0.00,CLR,,0.00,WeatherDisplay:10.37,2013-07-22 05:12:00,
2013-07-22 01:17:00,72.1,69.7,30.00,ENE,68,2.6,2.6,92,0.00,CLR,,0.00,WeatherDisplay:10.37,2013-07-22 05:17:00,
2013-07-22 01:22:00,72.1,69.7,30.00,ENE,68,2.3,2.3,92,0.00,CLR,,0.00,WeatherDisplay:10.37,2013-07-22 05:22:00,
2013-07-22 01:27:00,72.1,69.7,30.00,East,90,3.3,3.3,92,0.00,CLR,,0.00,WeatherDisplay:10.37,2013-07-22 05:27:00,
2013-07-22 01:32:00,72.1,69.7,30.00,ENE,68,2.3,2.4,92,0.00,CLR,,0.00,WeatherDisplay:10.37,2013-07-22 05:32:00,
2013-07-22 01:37:00,72.1,69.7,30.00,ENE,68,4.0,4.0,92,0.00,CLR,,0.00,WeatherDisplay:10.37,2013-07-22 05:37:00,
2013-07-22 01:42:00,72.0,69.2,30.00,ENE,68,2.9,2.9,91,0.00,CLR,,0.00,WeatherDisplay:10.37,2013-07-22 05:42:00,
2013-07-22 01:47:00,71.8,69.0,30.00,ENE,68,2.3,2.3,91,0.00,CLR,,0.00,WeatherDisplay:10.37,2013-07-22 05:47:00,
2013-07-22 01:52:00,71.8,69.0,30.00,ESE,112,3.6,3.6,91,0.00,CLR,,0.00,WeatherDisplay:10.37,2013-07-22 05:52:00,
2013-07-22 01:57:00,71.6,68.8,30.00,ENE,68,2.3,2.3,91,0.00,CLR,,0.00,WeatherDisplay:10.37,2013-07-22 05:57:00,
2013-07-22 02:02:00,71.6,68.8,30.00,ENE,68,2.3,2.3,91,0.00,CLR,,0.00,WeatherDisplay:10.37,2013-07-22 06:02:00,
2013-07-22 02:07:00,71.4,68.7,30.00,ENE,68,3.5,3.5,91,0.00,CLR,,0.00,WeatherDisplay:10.37,2013-07-22 06:07:00,
2013-07-22 02:12:00,71.6,68.8,30.00,ESE,112,5.8,5.8,91,0.00,CLR,,0.00,WeatherDisplay:10.37,2013-07-22 06:12:00,
2013-07-22 02:17:00,71.6,68.8,30.00,ENE,68,3.5,3.5,91,0.00,CLR,,0.00,WeatherDisplay:10.37,2013-07-22 06:17:00,
2013-07-22 02:22:00,71.4,68.7,30.00,East,90,1.2,1.2,91,0.00,CLR,,0.00,WeatherDisplay:10.37,2013-07-22 06:22:00,
2013-07-22 02:27:00,71.2,68.5,30.00,ESE,112,3.5,3.5,91,0.00,CLR,,0.00,WeatherDisplay:10.37,2013-07-22 06:27:00,
2013-07-22 02:32:00,71.2,68.5,30.00,ENE,68,3.5,3.5,91,0.00,CLR,,0.00,WeatherDisplay:10.37,2013-07-22 06:32:00,
2013-07-22 02:37:00,71.1,68.3,30.00,ENE,68,2.3,2.3,91,0.00,CLR,,0.00,WeatherDisplay:10.37,2013-07-22 06:37:00,
2013-07-22 02:42:00,71.1,68.3,30.00,East,90,2.4,2.4,91,0.00,CLR,,0.00,WeatherDisplay:10.37,2013-07-22 06:42:00,
2013-07-22 02:47:00,71.1,68.3,29.97,ESE,112,2.3,2.3,91,0.00,CLR,,0.00,WeatherDisplay:10.37,2013-07-22 06:47:00,
2013-07-22 02:52:00,71.1,68.6,29.97,ESE,112,3.6,3.6,92,0.00,CLR,,0.00,WeatherDisplay:10.37,2013-07-22 06:52:00,
2013-07-22 02:57:00,71.1,68.3,29.97,ENE,68,4.6,4.6,91,0.00,CLR,,0.00,WeatherDisplay:10.37,2013-07-22 06:57:00,
2013-07-22 03:02:00,71.1,68.3,29.97,ENE,68,4.6,4.6,91,0.00,CLR,,0.00,WeatherDisplay:10.37,2013-07-22 07:02:00,
2013-07-22 03:07:00,71.1,68.6,29.97,East,90,4.6,4.6,92,0.00,CLR,,0.00,WeatherDisplay:10.37,2013-07-22 07:07:00,
2013-07-22 03:12:00,71.1,68.6,29.97,East,90,5.8,5.8,92,0.00,CLR,,0.00,WeatherDisplay:10.37,2013-07-22 07:12:00,
2013-07-22 03:17:00,71.1,68.6,29.97,ENE,68,5.8,5.8,92,0.00,CLR,,0.00,WeatherDisplay:10.37,2013-07-22 07:17:00,
2013-07-22 03:22:00,71.1,68.6,29.97,ENE,68,3.5,3.5,92,0.00,CLR,,0.00,WeatherDisplay:10.37,2013-07-22 07:22:00,
2013-07-22 03:27:00,70.9,68.4,29.97,ESE,112,3.5,3.5,92,0.00,CLR,,0.00,WeatherDisplay:10.37,2013-07-22 07:27:00,
2013-07-22 03:32:00,70.7,68.3,29.97,East,90,2.9,2.9,92,0.00,CLR,,0.00,WeatherDisplay:10.37,2013-07-22 07:32:00,
2013-07-22 03:37:00,70.7,68.3,29.97,ENE,68,2.3,2.3,92,0.00,CLR,,0.00,WeatherDisplay:10.37,2013-07-22 07:37:00,
2013-07-22 03:42:00,70.5,68.1,29.97,ENE,68,2.6,2.6,92,0.00,CLR,,0.00,WeatherDisplay:10.37,2013-07-22 07:42:00,
2013-07-22 03:47:00,70.5,68.1,29.97,NE,45,3.5,3.5,92,0.00,CLR,,0.00,WeatherDisplay:10.37,2013-07-22 07:47:00,
2013-07-22 03:52:00,70.3,68.2,29.97,ENE,68,2.6,2.6,93,0.00,CLR,,0.00,WeatherDisplay:10.37,2013-07-22 07:52:00,
2013-07-22 03:57:00,70.2,68.0,29.97,ENE,68,3.5,3.5,93,0.00,CLR,,0.00,WeatherDisplay:10.37,2013-07-22 07:57:00,
2013-07-22 04:02:00,70.0,67.9,29.94,ENE,68,2.3,2.3,93,0.00,CLR,,0.00,WeatherDisplay:10.37,2013-07-22 08:02:00,
2013-07-22 04:07:00,70.0,67.9,29.94,ENE,68,1.2,1.2,93,0.00,CLR,,0.00,WeatherDisplay:10.37,2013-07-22 08:07:00,
2013-07-22 04:12:00,69.8,67.7,29.94,ENE,68,2.4,2.4,93,0.00,CLR,,0.00,WeatherDisplay:10.37,2013-07-22 08:12:00,
2013-07-22 04:17:00,69.6,67.8,29.94,ENE,68,1.2,0.0,94,0.00,CLR,,0.00,WeatherDisplay:10.37,2013-07-22 08:17:00,
2013-07-22 04:22:00,69.6,67.8,29.94,ESE,112,2.3,2.3,94,0.00,CLR,,0.00,WeatherDisplay:10.37,2013-07-22 08:22:00,
2013-07-22 04:27:00,69.6,67.8,29.94,ENE,68,2.9,2.9,94,0.00,CLR,,0.00,WeatherDisplay:10.37,2013-07-22 08:27:00,
2013-07-22 04:33:00,69.6,67.8,29.94,ENE,68,2.3,2.3,94,0.00,CLR,,0.00,WeatherDisplay:10.37,2013-07-22 08:33:00,
2013-07-22 04:38:00,69.6,67.8,29.94,ESE,112,2.3,2.3,94,0.00,CLR,,0.00,WeatherDisplay:10.37,2013-07-22 08:38:00,
2013-07-22 04:43:00,69.6,67.8,29.94,ENE,68,2.3,2.3,94,0.00,CLR,,0.00,WeatherDisplay:10.37,2013-07-22 08:43:00,
2013-07-22 04:48:00,69.6,67.8,29.94,ENE,68,2.3,2.3,94,0.00,CLR,,0.00,WeatherDisplay:10.37,2013-07-22 08:48:00,
2013-07-22 04:53:00,69.6,67.8,29.94,ENE,68,2.3,2.3,94,0.00,CLR,,0.00,WeatherDisplay:10.37,2013-07-22 08:53:00,
2013-07-22 04:58:00,69.6,67.8,29.94,ENE,68,2.3,2.3,94,0.00,CLR,,0.00,WeatherDisplay:10.37,2013-07-22 08:58:00,
2013-07-22 05:03:00,69.6,67.8,29.97,East,90,2.3,2.3,94,0.00,CLR,,0.00,WeatherDisplay:10.37,2013-07-22 09:03:00,
2013-07-22 05:08:00,69.6,67.8,29.97,ENE,68,1.2,1.4,94,0.00,CLR,,0.00,WeatherDisplay:10.37,2013-07-22 09:08:00,
2013-07-22 05:13:00,69.6,67.8,29.97,ESE,112,2.3,2.3,94,0.00,CLR,,0.00,WeatherDisplay:10.37,2013-07-22 09:13:00,
2013-07-22 05:18:00,69.4,67.6,29.94,ENE,68,2.3,2.3,94,0.00,CLR,,0.00,WeatherDisplay:10.37,2013-07-22 09:18:00,
2013-07-22 05:23:00,69.4,67.6,29.94,ENE,68,3.6,3.6,94,0.00,CLR,,0.00,WeatherDisplay:10.37,2013-07-22 09:23:00,
2013-07-22 05:28:00,69.4,67.9,29.94,ESE,112,3.5,3.5,95,0.00,CLR,,0.00,WeatherDisplay:10.37,2013-07-22 09:28:00,
2013-07-22 05:33:00,69.4,67.9,29.97,ENE,68,2.3,2.3,95,0.00,CLR,,0.00,WeatherDisplay:10.37,2013-07-22 09:33:00,
2013-07-22 05:38:00,69.4,67.6,29.97,ENE,68,2.0,0.0,94,0.00,CLR,,0.00,WeatherDisplay:10.37,2013-07-22 09:38:00,
2013-07-22 05:43:00,69.3,67.5,29.97,ENE,68,1.4,1.4,94,0.00,CLR,,0.00,WeatherDisplay:10.37,2013-07-22 09:43:00,
2013-07-22 05:48:00,69.3,67.5,29.97,ENE,68,1.2,0.0,94,0.00,CLR,,0.00,WeatherDisplay:10.37,2013-07-22 09:48:00,
2013-07-22 05:53:00,69.3,67.5,29.97,ENE,68,2.6,2.6,94,0.00,CLR,,0.00,WeatherDisplay:10.37,2013-07-22 09:53:00,
2013-07-22 05:58:00,69.3,67.8,29.97,NE,45,4.0,0.0,95,0.00,CLR,,0.00,WeatherDisplay:10.37,2013-07-22 09:58:00,
2013-07-22 06:03:00,69.3,67.8,29.97,ESE,112,2.4,2.6,95,0.00,CLR,,0.00,WeatherDisplay:10.37,2013-07-22 10:03:00,
2013-07-22 06:08:00,69.3,67.8,29.97,ENE,68,3.6,3.6,95,0.00,CLR,,0.00,WeatherDisplay:10.37,2013-07-22 10:08:00,
2013-07-22 06:13:00,69.3,67.8,29.97,ESE,112,3.5,3.5,95,0.00,CLR,,0.00,WeatherDisplay:10.37,2013-07-22 10:13:00,
2013-07-22 06:18:00,69.3,67.5,29.94,ESE,112,3.5,3.5,94,0.00,CLR,,0.00,WeatherDisplay:10.37,2013-07-22 10:18:00,
2013-07-22 06:23:00,69.3,67.5,29.94,ESE,112,4.6,4.6,94,0.00,CLR,,0.00,WeatherDisplay:10.37,2013-07-22 10:23:00,
2013-07-22 06:28:00,69.3,67.5,29.94,ESE,112,4.6,4.6,94,0.00,CLR,,0.00,WeatherDisplay:10.37,2013-07-22 10:28:00,
2013-07-22 06:33:00,69.4,67.6,29.94,ESE,112,2.6,2.6,94,0.00,CLR,,0.00,WeatherDisplay:10.37,2013-07-22 10:33:00,
2013-07-22 06:38:00,69.4,67.6,29.94,ENE,68,3.5,3.5,94,0.00,CLR,,0.00,WeatherDisplay:10.37,2013-07-22 10:38:00,
2013-07-22 06:43:00,69.4,67.3,29.94,ENE,68,4.6,4.6,93,0.00,CLR,,0.00,WeatherDisplay:10.37,2013-07-22 10:43:00,
2013-07-22 06:48:00,69.4,67.6,29.94,ESE,112,3.5,3.6,94,0.00,CLR,,0.00,WeatherDisplay:10.37,2013-07-22 10:48:00,
2013-07-22 06:53:00,69.4,67.6,29.94,ENE,68,3.5,3.5,94,0.00,CLR,,0.00,WeatherDisplay:10.37,2013-07-22 10:53:00,
2013-07-22 06:58:00,69.4,67.6,29.94,ENE,68,4.6,4.6,94,0.00,CLR,,0.00,WeatherDisplay:10.37,2013-07-22 10:58:00,
2013-07-22 07:03:00,69.6,67.8,29.94,ESE,112,5.8,5.8,94,0.00,CLR,,0.00,WeatherDisplay:10.37,2013-07-22 11:03:00,
2013-07-22 07:08:00,69.6,67.5,29.94,NNE,22,4.3,4.3,93,0.00,CLR,,0.00,WeatherDisplay:10.37,2013-07-22 11:08:00,
2013-07-22 07:13:00,69.6,67.5,29.94,ENE,68,3.5,3.5,93,0.00,CLR,,0.00,WeatherDisplay:10.37,2013-07-22 11:13:00,
2013-07-22 07:18:00,69.6,67.5,29.94,ESE,112,2.4,2.4,93,0.00,CLR,,0.00,WeatherDisplay:10.37,2013-07-22 11:18:00,
2013-07-22 07:23:00,69.8,67.7,29.94,ESE,112,3.5,3.5,93,0.00,CLR,,0.00,WeatherDisplay:10.37,2013-07-22 11:23:00,
2013-07-22 07:28:00,69.8,67.7,29.94,ESE,112,3.5,3.5,93,0.00,CLR,,0.00,WeatherDisplay:10.37,2013-07-22 11:28:00,
2013-07-22 07:33:00,69.8,67.7,29.94,ENE,68,3.5,3.5,93,0.00,CLR,,0.00,WeatherDisplay:10.37,2013-07-22 11:33:00,
2013-07-22 07:38:00,69.8,67.7,29.94,ENE,68,3.5,3.5,93,0.00,CLR,,0.00,WeatherDisplay:10.37,2013-07-22 11:38:00,
2013-07-22 07:43:00,69.8,67.7,29.94,ENE,68,3.5,3.5,93,0.00,CLR,,0.00,WeatherDisplay:10.37,2013-07-22 11:43:00,
2013-07-22 07:48:00,70.0,68.2,29.94,ESE,112,4.6,4.6,94,0.00,CLR,,0.00,WeatherDisplay:10.37,2013-07-22 11:48:00,
2013-07-22 07:53:00,70.0,68.2,29.94,ENE,68,5.8,5.8,94,0.00,CLR,,0.00,WeatherDisplay:10.37,2013-07-22 11:53:00,
2013-07-22 07:58:00,70.0,68.2,29.94,ESE,112,5.8,5.8,94,0.00,CLR,,0.00,WeatherDisplay:10.37,2013-07-22 11:58:00,
2013-07-22 08:03:00,70.0,68.2,29.94,ENE,68,4.6,4.6,94,0.00,CLR,,0.00,WeatherDisplay:10.37,2013-07-22 12:03:00,
2013-07-22 08:08:00,70.0,68.2,29.94,East,90,5.8,5.8,94,0.00,CLR,,0.00,WeatherDisplay:10.37,2013-07-22 12:08:00,
2013-07-22 08:13:00,70.0,68.2,29.94,ENE,68,6.9,6.9,94,0.00,CLR,,0.00,WeatherDisplay:10.37,2013-07-22 12:13:00,
2013-07-22 08:18:00,70.0,68.2,29.94,ENE,68,6.9,6.9,94,0.00,CLR,,0.00,WeatherDisplay:10.37,2013-07-22 12:18:00,
2013-07-22 08:23:00,70.0,68.2,29.94,ENE,68,6.4,6.4,94,0.00,CLR,,0.00,WeatherDisplay:10.37,2013-07-22 12:23:00,
2013-07-22 08:28:00,70.2,68.4,29.94,ENE,68,6.9,6.9,94,0.00,CLR,,0.00,WeatherDisplay:10.37,2013-07-22 12:28:00,
2013-07-22 08:33:00,70.2,68.4,29.94,ENE,68,8.1,8.1,94,0.00,CLR,,0.00,WeatherDisplay:10.37,2013-07-22 12:33:00,
2013-07-22 08:38:00,70.2,68.7,29.94,ESE,112,4.6,4.6,95,0.00,CLR,,0.00,WeatherDisplay:10.37,2013-07-22 12:38:00,
2013-07-22 08:43:00,70.2,68.7,29.94,ESE,112,4.7,4.7,95,0.00,CLR,,0.00,WeatherDisplay:10.37,2013-07-22 12:43:00,
2013-07-22 08:48:00,70.0,68.5,29.94,ESE,112,4.6,4.6,95,0.00,CLR,,0.00,WeatherDisplay:10.37,2013-07-22 12:48:00,
2013-07-22 08:53:00,70.0,68.5,29.94,ENE,68,3.5,3.5,95,0.00,CLR,,0.00,WeatherDisplay:10.37,2013-07-22 12:53:00,
2013-07-22 08:58:00,70.0,68.5,29.94,ENE,68,4.6,4.6,95,0.00,CLR,,0.00,WeatherDisplay:10.37,2013-07-22 12:58:00,
2013-07-22 09:03:00,70.0,68.5,29.94,ENE,68,3.5,3.5,95,0.00,CLR,,0.00,WeatherDisplay:10.37,2013-07-22 13:03:00,
2013-07-22 09:08:00,69.8,68.3,29.94,ENE,68,5.8,5.8,95,0.00,CLR,,0.00,WeatherDisplay:10.37,2013-07-22 13:08:00,
2013-07-22 09:13:00,69.8,68.6,29.94,ESE,112,4.6,4.6,96,0.00,CLR,,0.00,WeatherDisplay:10.37,2013-07-22 13:13:00,
2013-07-22 09:18:00,69.8,68.6,29.94,East,90,4.6,4.6,96,0.00,CLR,,0.00,WeatherDisplay:10.37,2013-07-22 13:18:00,
2013-07-22 09:23:00,69.8,68.6,29.94,ENE,68,4.6,4.6,96,0.00,CLR,,0.00,WeatherDisplay:10.37,2013-07-22 13:23:00,
2013-07-22 09:28:00,69.8,68.6,29.94,SSE,158,3.5,3.5,96,0.00,CLR,,0.00,WeatherDisplay:10.37,2013-07-22 13:28:00,
2013-07-22 09:33:00,69.8,68.6,29.94,ENE,68,3.8,3.8,96,0.00,CLR,,0.00,WeatherDisplay:10.37,2013-07-22 13:33:00,
2013-07-22 09:38:00,70.0,68.8,29.94,ENE,68,2.9,2.9,96,0.00,CLR,,0.00,WeatherDisplay:10.37,2013-07-22 13:38:00,
2013-07-22 09:43:00,70.0,68.8,29.94,East,90,3.3,3.3,96,0.00,CLR,,0.00,WeatherDisplay:10.37,2013-07-22 13:43:00,
2013-07-22 09:49:00,70.0,68.8,29.94,ENE,68,3.6,3.6,96,0.00,CLR,,0.00,WeatherDisplay:10.37,2013-07-22 13:49:00,
2013-07-22 09:54:00,70.0,68.8,29.94,ENE,68,3.8,3.8,96,0.00,CLR,,0.00,WeatherDisplay:10.37,2013-07-22 13:54:00,
2013-07-22 09:59:00,70.0,68.8,29.94,ESE,112,5.8,5.8,96,0.00,CLR,,0.00,WeatherDisplay:10.37,2013-07-22 13:59:00,
2013-07-22 10:04:00,70.2,69.0,29.94,ENE,68,4.6,4.6,96,0.00,CLR,,0.00,WeatherDisplay:10.37,2013-07-22 14:04:00,
2013-07-22 10:09:00,70.2,69.0,29.94,North,0,2.3,2.3,96,0.00,CLR,,0.00,WeatherDisplay:10.37,2013-07-22 14:09:00,
2013-07-22 10:14:00,70.2,69.0,29.94,ESE,112,0.0,0.0,96,0.00,CLR,,0.00,WeatherDisplay:10.37,2013-07-22 14:14:00,
2013-07-22 10:19:00,70.3,69.1,29.94,NNW,338,2.0,0.0,96,0.09,RA,,0.09,WeatherDisplay:10.37,2013-07-22 14:19:00,
2013-07-22 10:24:00,70.2,69.0,29.94,WNW,292,2.3,2.3,96,0.09,RA,,0.09,WeatherDisplay:10.37,2013-07-22 14:24:00,
2013-07-22 10:29:00,70.3,69.1,29.94,WNW,292,4.6,4.6,96,0.17,RA,,0.17,WeatherDisplay:10.37,2013-07-22 14:29:00,
2013-07-22 10:34:00,70.2,69.0,29.94,WNW,292,3.6,3.6,96,0.17,RA,,0.17,WeatherDisplay:10.37,2013-07-22 14:34:00,
2013-07-22 10:39:00,70.2,69.0,29.94,NNW,338,5.8,5.8,96,0.17,CLR,,0.17,WeatherDisplay:10.37,2013-07-22 14:39:00,
2013-07-22 10:44:00,70.2,69.0,29.94,NNW,338,4.7,4.7,96,0.50,RA,,0.50,WeatherDisplay:10.37,2013-07-22 14:44:00,
2013-07-22 10:49:00,68.9,67.7,29.94,ESE,112,2.3,0.0,96,0.62,RA,,0.75,WeatherDisplay:10.37,2013-07-22 14:49:00,
2013-07-22 10:54:00,68.5,67.4,29.94,WSW,248,4.6,4.6,96,0.83,RA,,0.83,WeatherDisplay:10.37,2013-07-22 14:54:00,
2013-07-22 10:59:00,68.0,66.8,29.94,WNW,292,5.8,5.8,96,0.83,RA,,0.83,WeatherDisplay:10.37,2013-07-22 14:59:00,
2013-07-22 11:04:00,67.8,66.9,29.94,WNW,292,4.6,4.6,97,1.12,RA,,1.12,WeatherDisplay:10.37,2013-07-22 15:04:00,
2013-07-22 11:09:00,67.5,66.6,29.94,WNW,292,5.8,5.8,97,1.16,RA,,1.16,WeatherDisplay:10.37,2013-07-22 15:09:00,
2013-07-22 11:14:00,67.1,66.2,29.94,NNW,338,2.3,2.3,97,1.29,RA,,1.29,WeatherDisplay:10.37,2013-07-22 15:14:00,
2013-07-22 11:19:00,67.1,66.2,29.94,WNW,292,1.6,1.6,97,1.24,RA,,1.33,WeatherDisplay:10.37,2013-07-22 15:19:00,
2013-07-22 11:24:00,67.1,66.2,29.94,WNW,292,2.3,2.3,97,1.36,RA,,1.45,WeatherDisplay:10.37,2013-07-22 15:24:00,
2013-07-22 11:29:00,67.1,66.2,29.94,NNE,22,2.3,2.3,97,1.37,RA,,1.54,WeatherDisplay:10.37,2013-07-22 15:29:00,
2013-07-22 11:34:00,67.3,66.4,29.94,NNW,338,1.6,1.6,97,1.37,RA,,1.54,WeatherDisplay:10.37,2013-07-22 15:34:00,
2013-07-22 11:39:00,67.5,66.6,29.94,WNW,292,2.3,0.0,97,1.37,,,1.54,WeatherDisplay:10.37,2013-07-22 15:39:00,
2013-07-22 11:44:00,67.5,66.6,29.94,SSE,158,2.3,2.3,97,1.04,CLR,,1.54,WeatherDisplay:10.37,2013-07-22 15:44:00,
2013-07-22 11:49:00,67.3,66.4,29.94,ENE,68,7.1,7.1,97,0.79,CLR,,1.54,WeatherDisplay:10.37,2013-07-22 15:49:00,
2013-07-22 11:54:00,67.3,66.4,29.94,ENE,68,6.9,6.9,97,0.71,CLR,,1.54,WeatherDisplay:10.37,2013-07-22 15:54:00,
2013-07-22 11:59:00,67.3,66.4,29.94,NNE,22,3.5,3.5,97,0.71,CLR,,1.54,WeatherDisplay:10.37,2013-07-22 15:59:00,
2013-07-22 12:04:00,67.5,66.6,29.94,NNW,338,4.6,4.6,97,0.42,CLR,,1.54,WeatherDisplay:10.37,2013-07-22 16:04:00,
2013-07-22 12:09:00,67.6,66.8,29.94,ENE,68,5.8,5.8,97,0.38,CLR,,1.54,WeatherDisplay:10.37,2013-07-22 16:09:00,
2013-07-22 12:14:00,68.5,67.4,29.94,SE,135,5.8,5.8,96,0.25,CLR,,1.54,WeatherDisplay:10.37,2013-07-22 16:14:00,
2013-07-22 12:19:00,70.0,68.5,29.91,ENE,68,3.5,3.5,95,0.21,CLR,,1.54,WeatherDisplay:10.37,2013-07-22 16:19:00,
2013-07-22 12:24:00,71.4,69.9,29.91,ENE,68,3.5,3.5,95,0.09,CLR,,1.54,WeatherDisplay:10.37,2013-07-22 16:24:00,
2013-07-22 12:29:00,71.6,69.5,29.91,East,90,4.6,4.6,93,0.00,CLR,,1.54,WeatherDisplay:10.37,2013-07-22 16:29:00,
2013-07-22 12:34:00,71.8,69.3,29.94,ENE,68,4.6,4.6,92,0.00,CLR,,1.54,WeatherDisplay:10.37,2013-07-22 16:34:00,
2013-07-22 12:39:00,71.8,69.0,29.94,ESE,112,4.6,4.6,91,0.00,CLR,,1.54,WeatherDisplay:10.37,2013-07-22 16:39:00,
2013-07-22 12:44:00,72.3,69.5,29.94,SSE,158,2.3,2.3,91,0.00,CLR,,1.54,WeatherDisplay:10.37,2013-07-22 16:44:00,
2013-07-22 12:49:00,72.9,70.1,29.91,ENE,68,3.5,3.5,91,0.00,CLR,,1.54,WeatherDisplay:10.37,2013-07-22 16:49:00,
2013-07-22 12:54:00,73.4,70.9,29.91,ENE,68,1.2,1.2,92,0.00,CLR,,1.54,WeatherDisplay:10.37,2013-07-22 16:54:00,
2013-07-22 12:59:00,73.4,70.6,29.91,WNW,292,3.5,3.5,91,0.00,CLR,,1.54,WeatherDisplay:10.37,2013-07-22 16:59:00,
2013-07-22 13:04:00,73.9,70.8,29.94,SSW,202,1.4,1.4,90,0.00,CLR,,1.54,WeatherDisplay:10.37,2013-07-22 17:04:00,
2013-07-22 13:09:00,74.7,70.9,29.94,WSW,248,3.5,3.5,88,0.00,CLR,,1.54,WeatherDisplay:10.37,2013-07-22 17:09:00,
2013-07-22 13:14:00,75.6,71.1,29.94,WNW,292,3.5,3.5,86,0.00,CLR,,1.54,WeatherDisplay:10.37,2013-07-22 17:14:00,
2013-07-22 13:19:00,75.9,70.4,29.91,SSE,158,4.6,4.6,83,0.00,CLR,,1.54,WeatherDisplay:10.37,2013-07-22 17:19:00,
2013-07-22 13:24:00,76.3,70.0,29.91,WNW,292,4.6,4.6,81,0.00,CLR,,1.54,WeatherDisplay:10.37,2013-07-22 17:24:00,
2013-07-22 13:29:00,77.4,71.4,29.91,WSW,248,3.5,3.5,82,0.00,CLR,,1.54,WeatherDisplay:10.37,2013-07-22 17:29:00,
2013-07-22 13:34:00,77.4,70.0,29.91,WNW,292,6.0,6.0,78,0.00,CLR,,1.54,WeatherDisplay:10.37,2013-07-22 17:34:00,
2013-07-22 13:39:00,77.4,70.3,29.91,SSW,202,5.4,5.4,79,0.00,CLR,,1.54,WeatherDisplay:10.37,2013-07-22 17:39:00,
2013-07-22 13:44:00,76.5,69.8,29.91,WNW,292,4.6,4.6,80,0.00,CLR,,1.54,WeatherDisplay:10.37,2013-07-22 17:44:00,
2013-07-22 13:49:00,76.6,70.0,29.91,WNW,292,5.8,5.8,80,0.00,CLR,,1.54,WeatherDisplay:10.37,2013-07-22 17:49:00,
2013-07-22 13:54:00,76.3,69.7,29.91,WSW,248,5.6,5.6,80,0.00,CLR,,1.54,WeatherDisplay:10.37,2013-07-22 17:54:00,
2013-07-22 14:00:00,75.7,69.5,29.91,West,270,7.1,7.1,81,0.00,CLR,,1.54,WeatherDisplay:10.37,2013-07-22 18:00:00,
2013-07-22 14:05:00,75.6,70.0,29.91,SSE,158,6.2,6.2,83,0.00,CLR,,1.54,WeatherDisplay:10.37,2013-07-22 18:05:00,
2013-07-22 14:10:00,75.2,69.7,29.91,WNW,292,8.1,8.1,83,0.00,CLR,,1.54,WeatherDisplay:10.37,2013-07-22 18:10:00,
2013-07-22 14:15:00,75.4,70.6,29.91,WNW,292,5.8,5.8,85,0.00,CLR,,1.54,WeatherDisplay:10.37,2013-07-22 18:15:00,
2013-07-22 14:21:00,75.2,69.7,29.91,West,270,7.8,7.8,83,0.00,CLR,,1.54,WeatherDisplay:10.37,2013-07-22 18:21:00,
2013-07-22 14:26:00,74.8,69.0,29.91,WNW,292,8.5,8.5,82,0.00,CLR,,1.54,WeatherDisplay:10.37,2013-07-22 18:26:00,
2013-07-22 14:31:00,74.3,68.8,29.91,WNW,292,8.1,8.1,83,0.00,CLR,,1.54,WeatherDisplay:10.37,2013-07-22 18:31:00,
2013-07-22 14:36:00,74.5,69.3,29.91,WNW,292,9.2,9.2,84,0.00,CLR,,1.54,WeatherDisplay:10.37,2013-07-22 18:36:00,
2013-07-22 14:41:00,74.5,69.3,29.91,SSW,202,4.6,4.6,84,0.00,CLR,,1.54,WeatherDisplay:10.37,2013-07-22 18:41:00,
2013-07-22 14:48:00,74.8,69.7,29.91,WSW,248,4.6,4.6,84,0.00,CLR,,1.54,WeatherDisplay:10.37,2013-07-22 18:48:00,
2013-07-22 14:53:00,74.8,69.7,29.91,North,0,4.0,4.0,84,0.00,CLR,,1.54,WeatherDisplay:10.37,2013-07-22 18:53:00,
2013-07-22 14:58:00,74.7,68.8,29.91,WSW,248,6.9,6.9,82,0.00,CLR,,1.54,WeatherDisplay:10.37,2013-07-22 18:58:00,
2013-07-22 15:03:00,74.7,69.5,29.91,WNW,292,5.9,5.9,84,0.00,CLR,,1.54,WeatherDisplay:10.37,2013-07-22 19:03:00,
2013-07-22 15:08:00,74.5,69.7,29.91,WSW,248,5.9,5.9,85,0.00,CLR,,1.54,WeatherDisplay:10.37,2013-07-22 19:08:00,
2013-07-22 15:14:00,74.3,69.5,29.91,WNW,292,5.8,5.8,85,0.00,CLR,,1.54,WeatherDisplay:10.37,2013-07-22 19:14:00,
2013-07-22 15:19:00,74.3,69.8,29.91,WSW,248,4.6,4.6,86,0.00,CLR,,1.54,WeatherDisplay:10.37,2013-07-22 19:19:00,
2013-07-22 15:25:00,74.1,69.3,29.91,West,280,5.0,7.0,85,0.00,CLR,,1.54,WeatherDisplay:10.37,2013-07-22 19:25:00,
2013-07-22 15:30:00,74.0,69.5,29.91,WNW,299,5.0,6.0,86,0.00,CLR,,1.54,WeatherDisplay:10.37,2013-07-22 19:30:00,
2013-07-22 15:35:00,74.1,69.7,29.91,NW,308,5.0,6.0,86,0.00,CLR,,1.54,WeatherDisplay:10.37,2013-07-22 19:35:00,
2013-07-22 15:40:00,74.1,69.7,29.91,WNW,286,5.0,7.0,86,0.00,CLR,,1.54,WeatherDisplay:10.37,2013-07-22 19:40:00,
2013-07-22 15:45:00,74.1,70.0,29.91,WNW,283,3.0,6.0,87,0.00,CLR,,1.54,WeatherDisplay:10.37,2013-07-22 19:45:00,
2013-07-22 15:50:00,73.9,69.8,29.88,West,270,4.6,4.6,87,0.00,CLR,,1.54,WeatherDisplay:10.37,2013-07-22 19:50:00,
2013-07-22 15:55:00,73.9,69.8,29.88,West,270,3.5,3.5,87,0.00,CLR,,1.54,WeatherDisplay:10.37,2013-07-22 19:55:00,
2013-07-22 16:00:00,73.9,69.5,29.88,WSW,248,4.6,4.6,86,0.00,CLR,,1.54,WeatherDisplay:10.37,2013-07-22 20:00:00,
2013-07-22 16:05:00,73.8,69.6,29.91,WSW,248,3.5,3.5,87,0.00,CLR,,1.54,WeatherDisplay:10.37,2013-07-22 20:05:00,
2013-07-22 16:10:00,73.8,69.6,29.91,NNW,338,2.9,2.9,87,0.00,CLR,,1.54,WeatherDisplay:10.37,2013-07-22 20:10:00,
2013-07-22 16:15:00,73.6,69.5,29.91,NW,315,5.9,5.9,87,0.00,CLR,,1.54,WeatherDisplay:10.37,2013-07-22 20:15:00,
2013-07-22 16:16:00,73.6,69.5,29.91,WNW,292,5.8,5.8,87,0.00,CLR,,1.54,WeatherDisplay:10.37,2013-07-22 20:16:00,
2013-07-22 16:17:00,73.6,69.5,29.88,WNW,292,5.8,5.8,87,0.00,CLR,,1.54,WeatherDisplay:10.37,2013-07-22 20:17:00,
2013-07-22 16:22:00,73.2,69.5,29.88,West,270,5.8,5.8,88,0.00,CLR,,1.54,WeatherDisplay:10.37,2013-07-22 20:22:00,
2013-07-22 16:27:00,73.4,69.6,29.88,West,270,4.6,4.6,88,0.00,CLR,,1.54,WeatherDisplay:10.37,2013-07-22 20:27:00,
2013-07-22 16:32:00,73.4,69.3,29.88,NNW,338,4.9,4.9,87,0.00,CLR,,1.54,WeatherDisplay:10.37,2013-07-22 20:32:00,
2013-07-22 16:37:00,73.4,69.3,29.88,WNW,292,4.6,4.6,87,0.00,CLR,,1.54,WeatherDisplay:10.37,2013-07-22 20:37:00,
2013-07-22 16:42:00,73.2,69.1,29.88,WNW,292,6.0,6.0,87,0.00,CLR,,1.54,WeatherDisplay:10.37,2013-07-22 20:42:00,
2013-07-22 16:44:00,73.0,68.9,29.88,NNW,338,6.9,6.9,87,0.00,CLR,,1.54,WeatherDisplay:10.37,2013-07-22 20:44:00,
2013-07-22 16:49:00,73.0,69.3,29.88,WSW,248,4.6,4.6,88,0.00,CLR,,1.54,WeatherDisplay:10.37,2013-07-22 20:49:00,
2013-07-22 16:54:00,73.0,69.6,29.88,WNW,292,3.8,3.8,89,0.00,CLR,,1.54,WeatherDisplay:10.37,2013-07-22 20:54:00,
2013-07-22 16:59:00,73.0,69.6,29.88,WNW,292,4.6,4.6,89,0.00,CLR,,1.54,WeatherDisplay:10.37,2013-07-22 20:59:00,
2013-07-22 17:04:00,72.9,69.4,29.88,WNW,292,5.8,5.8,89,0.00,CLR,,1.54,WeatherDisplay:10.37,2013-07-22 21:04:00,
2013-07-22 17:09:00,72.7,69.2,29.88,WNW,292,3.5,3.5,89,0.00,CLR,,1.54,WeatherDisplay:10.37,2013-07-22 21:09:00,
2013-07-22 17:14:00,73.0,69.9,29.88,WNW,292,3.5,3.5,90,0.00,CLR,,1.54,WeatherDisplay:10.37,2013-07-22 21:14:00,
2013-07-22 17:19:00,73.6,70.1,29.88,WNW,292,4.6,4.6,89,0.00,CLR,,1.54,WeatherDisplay:10.37,2013-07-22 21:19:00,
2013-07-22 17:24:00,75.0,71.6,29.88,WSW,248,1.2,1.2,89,0.00,CLR,,1.54,WeatherDisplay:10.37,2013-07-22 21:24:00,
2013-07-22 17:29:00,75.9,72.1,29.88,WNW,292,0.0,0.0,88,0.00,CLR,,1.54,WeatherDisplay:10.37,2013-07-22 21:29:00,
2013-07-22 17:34:00,75.9,71.4,29.88,SSW,202,0.0,0.0,86,0.00,CLR,,1.54,WeatherDisplay:10.37,2013-07-22 21:34:00,
2013-07-22 17:39:00,75.4,70.6,29.88,SSW,202,1.2,0.0,85,0.00,CLR,,1.54,WeatherDisplay:10.37,2013-07-22 21:39:00,
2013-07-22 17:44:00,76.1,71.3,29.88,WNW,292,2.3,0.0,85,0.00,CLR,,1.54,WeatherDisplay:10.37,2013-07-22 21:44:00,
2013-07-22 17:49:00,76.1,70.9,29.88,WNW,292,3.5,3.5,84,0.00,CLR,,1.54,WeatherDisplay:10.37,2013-07-22 21:49:00,
2013-07-22 17:54:00,76.5,71.3,29.88,NNW,338,0.0,0.0,84,0.00,CLR,,1.54,WeatherDisplay:10.37,2013-07-22 21:54:00,
2013-07-22 17:59:00,76.5,71.3,29.88,WNW,292,2.3,2.3,84,0.00,CLR,,1.54,WeatherDisplay:10.37,2013-07-22 21:59:00,
2013-07-22 18:04:00,76.6,71.1,29.88,NNW,338,2.3,2.3,83,0.00,CLR,,1.54,WeatherDisplay:10.37,2013-07-22 22:04:00,
2013-07-22 18:09:00,76.1,70.2,29.88,NNW,338,2.6,2.6,82,0.00,CLR,,1.54,WeatherDisplay:10.37,2013-07-22 22:09:00,
2013-07-22 18:14:00,75.6,70.0,29.88,WSW,248,3.5,3.5,83,0.00,CLR,,1.54,WeatherDisplay:10.37,2013-07-22 22:14:00,
2013-07-22 18:19:00,75.2,70.0,29.85,ENE,68,3.5,3.5,84,0.00,CLR,,1.54,WeatherDisplay:10.37,2013-07-22 22:19:00,
2013-07-22 18:24:00,75.2,70.4,29.85,WNW,292,1.2,0.0,85,0.00,CLR,,1.54,WeatherDisplay:10.37,2013-07-22 22:24:00,
2013-07-22 18:29:00,75.4,70.6,29.85,WNW,292,1.2,1.2,85,0.00,CLR,,1.54,WeatherDisplay:10.37,2013-07-22 22:29:00,
2013-07-22 18:34:00,75.4,70.6,29.85,ENE,68,0.0,0.0,85,0.00,CLR,,1.54,WeatherDisplay:10.37,2013-07-22 22:34:00,
2013-07-22 18:39:00,75.7,70.9,29.85,ENE,68,0.0,0.0,85,0.00,CLR,,1.54,WeatherDisplay:10.37,2013-07-22 22:39:00,
2013-07-22 18:44:00,75.6,70.4,29.85,ESE,112,2.3,2.3,84,0.00,CLR,,1.54,WeatherDisplay:10.37,2013-07-22 22:44:00,
2013-07-22 18:49:00,75.7,70.6,29.85,ESE,112,0.0,0.0,84,0.00,CLR,,1.54,WeatherDisplay:10.37,2013-07-22 22:49:00,
2013-07-22 18:54:00,75.6,70.4,29.85,WNW,292,1.2,0.0,84,0.00,CLR,,1.54,WeatherDisplay:10.37,2013-07-22 22:54:00,
2013-07-22 18:59:00,75.2,70.0,29.85,WNW,292,1.2,1.2,84,0.00,CLR,,1.54,WeatherDisplay:10.37,2013-07-22 22:59:00,
2013-07-22 19:04:00,74.8,70.0,29.85,WNW,292,1.2,1.4,85,0.00,CLR,,1.54,WeatherDisplay:10.37,2013-07-22 23:04:00,
2013-07-22 19:09:00,74.5,69.7,29.85,WNW,292,1.2,0.0,85,0.00,CLR,,1.54,WeatherDisplay:10.37,2013-07-22 23:09:00,
2013-07-22 19:14:00,74.3,69.8,29.85,West,270,2.6,2.6,86,0.00,CLR,,1.54,WeatherDisplay:10.37,2013-07-22 23:14:00,
2013-07-22 19:19:00,74.5,70.0,29.85,NNW,338,2.3,0.0,86,0.00,CLR,,1.54,WeatherDisplay:10.37,2013-07-22 23:19:00,
2013-07-22 19:24:00,75.4,70.9,29.85,NNW,338,0.0,0.0,86,0.00,CLR,,1.54,WeatherDisplay:10.37,2013-07-22 23:24:00,
2013-07-22 19:29:00,77.0,72.1,29.85,ENE,68,2.3,2.3,85,0.00,CLR,,1.54,WeatherDisplay:10.37,2013-07-22 23:29:00,
2013-07-22 19:34:00,78.1,71.8,29.85,NNE,22,2.3,2.3,81,0.00,CLR,,1.54,WeatherDisplay:10.37,2013-07-22 23:34:00,
2013-07-22 19:39:00,78.8,71.7,29.85,ENE,68,0.0,0.0,79,0.00,CLR,,1.54,WeatherDisplay:10.37,2013-07-22 23:39:00,
2013-07-22 19:44:00,78.1,71.0,29.85,NNW,338,3.5,3.5,79,0.00,CLR,,1.54,WeatherDisplay:10.37,2013-07-22 23:44:00,
2013-07-22 19:49:00,78.4,71.4,29.85,NNW,338,1.6,0.0,79,0.00,CLR,,1.54,WeatherDisplay:10.37,2013-07-22 23:49:00,
2013-07-22 19:54:00,78.1,70.7,29.85,ENE,68,2.3,0.0,78,0.00,CLR,,1.54,WeatherDisplay:10.37,2013-07-22 23:54:00,
2013-07-22 19:59:00,77.5,70.1,29.85,NNW,338,2.3,2.3,78,0.00,CLR,,1.54,WeatherDisplay:10.37,2013-07-22 23:59:00,
2013-07-22 20:04:00,76.5,69.5,29.85,NNW,338,2.3,0.0,79,0.00,CLR,,1.54,WeatherDisplay:10.37,2013-07-23 00:04:00,
2013-07-22 20:09:00,75.9,69.3,29.85,NNW,338,1.2,1.2,80,0.00,CLR,,1.54,WeatherDisplay:10.37,2013-07-23 00:09:00,
2013-07-22 20:14:00,75.6,69.3,29.85,South,180,0.0,0.0,81,0.00,CLR,,1.54,WeatherDisplay:10.37,2013-07-23 00:14:00,
2013-07-22 20:19:00,75.4,69.5,29.85,SSE,158,0.0,0.0,82,0.00,CLR,,1.54,WeatherDisplay:10.37,2013-07-23 00:19:00,
2013-07-22 20:24:00,75.2,69.3,29.85,ESE,112,0.0,0.0,82,0.00,CLR,,1.54,WeatherDisplay:10.37,2013-07-23 00:24:00,
2013-07-22 20:30:00,74.8,69.0,29.85,ESE,112,0.0,0.0,82,0.00,CLR,,1.54,WeatherDisplay:10.37,2013-07-23 00:30:00,
2013-07-22 20:35:00,74.3,68.8,29.85,WNW,292,0.0,0.0,83,0.00,CLR,,1.54,WeatherDisplay:10.37,2013-07-23 00:35:00,
2013-07-22 20:40:00,73.9,68.8,29.85,NNW,338,0.0,0.0,84,0.00,CLR,,1.54,WeatherDisplay:10.37,2013-07-23 00:40:00,
2013-07-22 20:45:00,73.4,68.6,29.85,NNW,338,0.0,0.0,85,0.00,CLR,,1.54,WeatherDisplay:10.37,2013-07-23 00:45:00,
2013-07-22 20:50:00,72.9,68.8,29.85,SE,135,0.0,0.0,87,0.00,CLR,,1.54,WeatherDisplay:10.37,2013-07-23 00:50:00,
2013-07-22 20:55:00,72.1,68.4,29.85,ESE,112,0.0,0.0,88,0.00,CLR,,1.54,WeatherDisplay:10.37,2013-07-23 00:55:00,
2013-07-22 21:00:00,71.8,68.0,29.85,ENE,68,0.0,0.0,88,0.00,CLR,,1.54,WeatherDisplay:10.37,2013-07-23 01:00:00,
2013-07-22 21:05:00,71.6,68.2,29.85,ESE,112,0.0,0.0,89,0.00,CLR,,1.54,WeatherDisplay:10.37,2013-07-23 01:05:00,
2013-07-22 21:10:00,71.4,68.3,29.85,ESE,112,0.0,0.0,90,0.00,CLR,,1.54,WeatherDisplay:10.37,2013-07-23 01:10:00,
2013-07-22 21:15:00,71.2,68.5,29.85,ESE,112,0.0,0.0,91,0.00,CLR,,1.54,WeatherDisplay:10.37,2013-07-23 01:15:00,
2013-07-22 21:20:00,71.1,68.3,29.85,ESE,112,1.2,0.0,91,0.00,CLR,,1.54,WeatherDisplay:10.37,2013-07-23 01:20:00,
2013-07-22 21:25:00,70.9,68.8,29.85,ESE,112,2.3,2.3,93,0.00,CLR,,1.54,WeatherDisplay:10.37,2013-07-23 01:25:00,
2013-07-22 21:30:00,70.7,68.3,29.85,ENE,68,0.0,0.0,92,0.00,CLR,,1.54,WeatherDisplay:10.37,2013-07-23 01:30:00,
2013-07-22 21:35:00,70.5,68.1,29.88,ESE,112,0.0,0.0,92,0.00,CLR,,1.54,WeatherDisplay:10.37,2013-07-23 01:35:00,
2013-07-22 21:40:00,70.5,68.1,29.88,SSE,158,0.0,0.0,92,0.00,CLR,,1.54,WeatherDisplay:10.37,2013-07-23 01:40:00,
2013-07-22 21:45:00,70.3,68.2,29.88,SE,135,0.0,0.0,93,0.00,CLR,,1.54,WeatherDisplay:10.37,2013-07-23 01:45:00,
2013-07-22 21:50:00,70.0,67.9,29.88,SE,135,0.0,0.0,93,0.00,CLR,,1.54,WeatherDisplay:10.37,2013-07-23 01:50:00,
2013-07-22 21:55:00,70.0,67.9,29.88,SSE,158,0.0,0.0,93,0.00,CLR,,1.54,WeatherDisplay:10.37,2013-07-23 01:55:00,
2013-07-22 22:00:00,69.8,68.0,29.88,SSE,158,0.0,0.0,94,0.00,CLR,,1.54,WeatherDisplay:10.37,2013-07-23 02:00:00,
2013-07-22 22:05:00,69.6,67.8,29.88,WSW,248,0.0,0.0,94,0.00,CLR,,1.54,WeatherDisplay:10.37,2013-07-23 02:05:00,
2013-07-22 22:10:00,69.4,67.6,29.88,WSW,248,0.0,0.0,94,0.00,CLR,,1.54,WeatherDisplay:10.37,2013-07-23 02:10:00,
2013-07-22 22:15:00,69.4,67.9,29.88,WSW,248,0.0,0.0,95,0.00,CLR,,1.54,WeatherDisplay:10.37,2013-07-23 02:15:00,
2013-07-22 22:20:00,69.3,67.8,29.88,WSW,248,0.0,0.0,95,0.00,CLR,,1.54,WeatherDisplay:10.37,2013-07-23 02:20:00,
2013-07-22 22:25:00,69.3,67.8,29.88,WSW,248,0.0,0.0,95,0.00,CLR,,1.54,WeatherDisplay:10.37,2013-07-23 02:25:00,
2013-07-22 22:30:00,68.9,67.4,29.88,WSW,248,0.0,0.0,95,0.00,CLR,,1.54,WeatherDisplay:10.37,2013-07-23 02:30:00,
2013-07-22 22:35:00,68.5,67.1,29.88,SSE,158,0.0,0.0,95,0.00,CLR,,1.54,WeatherDisplay:10.37,2013-07-23 02:35:00,
2013-07-22 22:40:00,68.5,67.1,29.88,SSE,158,0.0,0.0,95,0.00,CLR,,1.54,WeatherDisplay:10.37,2013-07-23 02:40:00,
2013-07-22 22:45:00,68.5,67.1,29.88,SSE,158,0.0,0.0,95,0.00,CLR,,1.54,WeatherDisplay:10.37,2013-07-23 02:45:00,
2013-07-22 22:50:00,68.4,66.9,29.88,SSE,158,0.0,0.0,95,0.00,CLR,,1.54,WeatherDisplay:10.37,2013-07-23 02:50:00,
2013-07-22 22:55:00,68.4,66.9,29.88,SSE,158,0.0,0.0,95,0.00,CLR,,1.54,WeatherDisplay:10.37,2013-07-23 02:55:00,
2013-07-22 23:00:00,68.4,66.9,29.88,SSE,158,0.0,0.0,95,0.00,CLR,,1.54,WeatherDisplay:10.37,2013-07-23 03:00:00,
2013-07-22 23:05:00,68.5,67.1,29.88,SSE,158,0.0,0.0,95,0.00,CLR,,1.54,WeatherDisplay:10.37,2013-07-23 03:05:00,
2013-07-22 23:10:00,68.7,67.2,29.88,SSE,158,0.0,0.0,95,0.00,CLR,,1.54,WeatherDisplay:10.37,2013-07-23 03:10:00,
2013-07-22 23:15:00,68.7,67.5,29.88,SSE,158,0.0,0.0,96,0.00,CLR,,1.54,WeatherDisplay:10.37,2013-07-23 03:15:00,
2013-07-22 23:20:00,68.7,67.5,29.88,SSE,158,0.0,0.0,96,0.00,CLR,,1.54,WeatherDisplay:10.37,2013-07-23 03:20:00,
2013-07-22 23:25:00,68.9,67.7,29.88,SSW,202,0.0,0.0,96,0.00,CLR,,1.54,WeatherDisplay:10.37,2013-07-23 03:25:00,
2013-07-22 23:30:00,69.1,67.9,29.88,SSW,202,1.2,0.0,96,0.00,CLR,,1.54,WeatherDisplay:10.37,2013-07-23 03:30:00,
2013-07-22 23:35:00,69.3,68.1,29.88,South,180,0.0,0.0,96,0.00,CLR,,1.54,WeatherDisplay:10.37,2013-07-23 03:35:00,
2013-07-22 23:40:00,69.3,68.1,29.88,South,180,1.2,0.0,96,0.00,CLR,,1.54,WeatherDisplay:10.37,2013-07-23 03:40:00,
2013-07-22 23:45:00,69.3,68.1,29.88,SE,135,0.0,0.0,96,0.00,CLR,,1.54,WeatherDisplay:10.37,2013-07-23 03:45:00,
2013-07-22 23:50:00,69.3,68.1,29.88,SSE,158,0.0,0.0,96,0.00,CLR,,1.54,WeatherDisplay:10.37,2013-07-23 03:50:00,
2013-07-22 23:55:00,69.1,67.9,29.88,ESE,112,0.0,0.0,96,0.00,CLR,,1.54,WeatherDisplay:10.37,2013-07-23 03:55:00,